Yancey Mills, Virginia
Current Conditions -  °F | °C
As of 5:35 AM on Monday 26 Jan 2015 (Local Time) from KW13 Reporting Station
Overcast Overcast  
Wind Chill: 31°   Ceiling: 3800
Heat Index: 36°   Visibility: 7mi
Dew Point: 34°   Wind: 6mph
Humidity: 93%   Direction: 90°E
Pressure: 29.67"   Gusts: NA
Location:  38.1379°N, 78.7036°W
Report Text: KW13 261035Z AUTO 09005KT 7SM SCT030 BKN038 OVC049 02/01 A2967 RMK AO1 P0001 T00220012
Loading
Personal Weather Stations






























Interactive Weather Map New forecast layout! Learn more

10-Day Weather Forecast

Advertisements
Track Severe Weather on mobile